createdAt,value
2019-06-15T19:12:47.620Z,101730.41
2019-06-15T19:15:17.088Z,101726.84
2019-06-15T19:17:46.477Z,101724.69
2019-06-15T19:20:16.871Z,101734.13
2019-06-15T19:22:47.499Z,101745.11
2019-06-15T19:25:16.202Z,101747.41
2019-06-15T19:27:44.158Z,101746.42
2019-06-15T19:30:13.737Z,101746.06
2019-06-15T19:32:42.906Z,101743.61
2019-06-15T19:35:12.443Z,101743.53
2019-06-15T19:37:41.916Z,101749.34
2019-06-15T19:40:11.254Z,101760.72
2019-06-15T19:42:40.701Z,101760.89
2019-06-15T19:45:10.729Z,101769.11
2019-06-15T19:47:39.940Z,101769.61
2019-06-15T19:50:10.083Z,101784.23
2019-06-15T19:52:38.214Z,101781.45
2019-06-15T19:55:07.683Z,101788.41
2019-06-15T19:57:37.158Z,101791.19
2019-06-15T20:00:07.536Z,101795.41
2019-06-15T20:02:36.775Z,101794.49
2019-06-15T20:05:06.954Z,101794.41
2019-06-15T20:07:36.888Z,101793.50
2019-06-15T20:10:07.393Z,101786.23
2019-06-15T20:12:37.439Z,101784.14
2019-06-15T20:15:06.544Z,101787.30
2019-06-15T20:17:36.752Z,101788.77
2019-06-15T20:20:06.991Z,101791.70
2019-06-15T20:22:37.357Z,101792.08
2019-06-15T20:25:06.652Z,101801.41
2019-06-15T20:27:35.513Z,101807.00
2019-06-15T20:30:06.302Z,101813.30
2019-06-15T20:32:33.566Z,101818.03
2019-06-15T20:35:16.185Z,101821.94
2019-06-15T20:37:32.807Z,101826.50
2019-06-15T20:40:02.147Z,101827.39
2019-06-15T20:42:31.626Z,101830.27
2019-06-15T20:45:00.807Z,101830.92
2019-06-15T20:47:30.309Z,101832.71
2019-06-15T20:50:00.020Z,101830.83
2019-06-15T20:52:29.511Z,101830.14
2019-06-15T20:54:58.938Z,101832.38
2019-06-15T20:57:28.139Z,101836.33
2019-06-15T20:59:57.559Z,101844.17
2019-06-15T21:02:27.149Z,101837.59
2019-06-15T21:04:56.576Z,101833.14
2019-06-15T21:07:26.924Z,101836.80
2019-06-15T21:09:57.270Z,101841.96
2019-06-15T21:12:26.868Z,101845.34
2019-06-15T21:14:56.078Z,101844.22
2019-06-15T21:17:23.459Z,101854.00
2019-06-15T21:19:52.923Z,101854.74
2019-06-15T21:22:22.498Z,101846.52
2019-06-15T21:24:54.653Z,101848.81
2019-06-15T21:27:21.157Z,101850.79
2019-06-15T21:29:50.517Z,101851.47
2019-06-15T21:32:20.038Z,101853.22
2019-06-15T21:34:49.833Z,101848.77
2019-06-15T21:37:19.261Z,101852.92
2019-06-15T21:39:48.786Z,101859.70
2019-06-15T21:42:18.196Z,101861.58
2019-06-15T21:44:47.349Z,101866.02
2019-06-15T21:47:16.751Z,101866.49
2019-06-15T21:49:46.869Z,101870.34
2019-06-15T21:52:16.656Z,101875.81
2019-06-15T21:54:46.825Z,101874.59
2019-06-15T21:57:16.032Z,101880.01
2019-06-15T21:59:43.706Z,101889.64
2019-06-15T22:02:13.201Z,101891.39
2019-06-15T22:04:42.328Z,101890.13
2019-06-15T22:07:11.810Z,101897.67
2019-06-15T22:09:40.962Z,101890.83
2019-06-15T22:12:10.234Z,101895.73
2019-06-15T22:14:39.407Z,101895.64
2019-06-15T22:17:08.827Z,101902.69
2019-06-15T22:19:38.624Z,101893.62
2019-06-15T22:22:08.073Z,101894.37
2019-06-15T22:24:37.251Z,101897.41
2019-06-15T22:27:06.812Z,101908.78
2019-06-15T22:29:36.620Z,101904.86
2019-06-15T22:32:06.842Z,101910.12
2019-06-15T22:34:36.281Z,101910.47
2019-06-15T22:37:06.938Z,101910.97
2019-06-15T22:39:33.727Z,101918.73
2019-06-15T22:42:06.688Z,101917.29
2019-06-15T22:44:33.644Z,101913.71
2019-06-15T22:47:03.613Z,101923.39
2019-06-15T22:49:35.880Z,101919.70
2019-06-15T22:52:03.321Z,101921.45
2019-06-15T22:54:32.524Z,101926.91
2019-06-15T22:57:02.005Z,101927.79
2019-06-15T22:59:30.841Z,101927.28
2019-06-15T23:01:59.997Z,101920.33
2019-06-15T23:04:29.522Z,101927.14
2019-06-15T23:06:59.119Z,101921.22
2019-06-15T23:09:28.243Z,101920.29
2019-06-15T23:11:57.639Z,101924.92
2019-06-15T23:14:27.073Z,101920.34
2019-06-15T23:16:56.871Z,101925.39
2019-06-15T23:19:26.287Z,101924.11
2019-06-15T23:21:57.185Z,101924.23
2019-06-15T23:24:27.246Z,101917.98
2019-06-15T23:26:56.948Z,101919.04
2019-06-15T23:29:23.858Z,101929.61
2019-06-15T23:31:53.873Z,101925.80
2019-06-15T23:34:23.415Z,101923.70
2019-06-15T23:36:56.980Z,101930.16
2019-06-15T23:39:22.040Z,101926.18
2019-06-15T23:41:51.274Z,101929.81
2019-06-15T23:44:20.756Z,101933.44
2019-06-15T23:46:50.125Z,101946.16
2019-06-15T23:49:19.578Z,101945.61
2019-06-15T23:51:49.208Z,101952.09
2019-06-15T23:54:18.496Z,101955.00
2019-06-15T23:56:47.388Z,101957.98
2019-06-15T23:59:18.017Z,101951.94
